createdAt,value
2019-01-17T00:00:23.404Z,45.70
2019-01-17T00:03:05.505Z,45.60
2019-01-17T00:06:02.314Z,45.50
2019-01-17T00:09:20.717Z,46.40
2019-01-17T00:12:02.213Z,45.50
2019-01-17T00:14:50.748Z,45.40
2019-01-17T00:17:41.064Z,45.10
2019-01-17T00:20:45.436Z,45.10
2019-01-17T00:23:31.679Z,44.80
2019-01-17T00:26:31.523Z,45.20
2019-01-17T00:29:22.385Z,45.00
2019-01-17T00:32:22.731Z,44.90
2019-01-17T00:37:56.552Z,45.00
2019-01-17T00:40:43.178Z,45.20
2019-01-17T00:43:29.528Z,45.10
2019-01-17T00:46:22.346Z,45.30
2019-01-17T00:48:59.012Z,45.10
2019-01-17T00:51:45.454Z,45.10
2019-01-17T00:54:42.399Z,45.00
2019-01-17T00:57:28.801Z,44.90
2019-01-17T01:00:19.760Z,45.30
2019-01-17T01:03:10.846Z,45.00
2019-01-17T01:06:07.668Z,44.60
2019-01-17T01:09:01.353Z,44.60
2019-01-17T01:11:49.369Z,45.00
2019-01-17T01:14:56.896Z,45.20
2019-01-17T01:17:35.214Z,45.10
2019-01-17T01:20:29.585Z,45.10
2019-01-17T01:23:23.519Z,45.20
2019-01-17T01:29:12.652Z,45.30
2019-01-17T01:31:51.986Z,44.90
2019-01-17T01:34:44.103Z,44.30
2019-01-17T01:37:30.408Z,44.20
2019-01-17T01:40:16.996Z,44.30
2019-01-17T01:43:04.754Z,43.80
2019-01-17T01:49:09.198Z,43.40
2019-01-17T01:52:12.161Z,43.50
2019-01-17T01:54:52.677Z,43.80
2019-01-17T01:57:21.949Z,43.50
2019-01-17T01:59:51.002Z,43.10
2019-01-17T02:02:19.732Z,42.70
2019-01-17T02:05:00.457Z,42.60
2019-01-17T02:07:29.245Z,43.10
2019-01-17T02:09:57.921Z,42.80
2019-01-17T02:12:26.742Z,43.10
2019-01-17T02:15:04.768Z,43.20
2019-01-17T02:17:33.558Z,43.20
2019-01-17T02:20:02.435Z,43.30
2019-01-17T02:22:31.278Z,43.30
2019-01-17T02:25:08.935Z,43.70
2019-01-17T02:27:37.713Z,43.50
2019-01-17T02:30:06.864Z,44.00
2019-01-17T02:32:38.502Z,44.40
2019-01-17T02:35:16.343Z,45.10
2019-01-17T02:37:45.032Z,45.60
2019-01-17T02:40:13.826Z,45.80
2019-01-17T02:42:42.644Z,45.70
2019-01-17T02:45:20.314Z,45.70
2019-01-17T02:47:49.111Z,45.60
2019-01-17T02:50:17.957Z,46.10
2019-01-17T02:52:46.950Z,46.20
2019-01-17T02:55:24.559Z,47.30
2019-01-17T02:57:53.719Z,47.10
2019-01-17T03:00:22.459Z,47.40
2019-01-17T03:02:52.932Z,47.80
2019-01-17T03:05:30.877Z,47.80
2019-01-17T03:07:59.825Z,47.80
2019-01-17T03:10:30.182Z,47.70
2019-01-17T03:12:59.097Z,47.90
2019-01-17T03:15:37.335Z,48.20
2019-01-17T03:18:06.147Z,49.00
2019-01-17T03:20:34.887Z,49.40
2019-01-17T03:23:03.628Z,49.40
2019-01-17T03:25:41.745Z,49.50
2019-01-17T03:28:10.643Z,50.10
2019-01-17T03:30:39.654Z,50.50
2019-01-17T03:33:08.486Z,50.60
2019-01-17T03:35:46.345Z,50.70
2019-01-17T03:38:15.320Z,50.60
2019-01-17T03:40:44.434Z,50.50
2019-01-17T03:43:13.438Z,50.30
2019-01-17T03:45:52.566Z,50.30
2019-01-17T03:48:21.403Z,49.90
2019-01-17T03:50:50.692Z,49.80
2019-01-17T03:53:19.542Z,49.30
2019-01-17T03:55:57.704Z,49.50
2019-01-17T03:58:26.468Z,49.40
2019-01-17T04:00:55.459Z,49.60
2019-01-17T04:03:24.270Z,49.40
2019-01-17T04:06:01.964Z,49.30
2019-01-17T04:08:30.751Z,49.50
2019-01-17T04:10:59.529Z,49.50
2019-01-17T04:13:28.327Z,49.00
2019-01-17T04:16:07.533Z,48.90
2019-01-17T04:18:36.529Z,49.20
2019-01-17T04:21:05.407Z,49.60
2019-01-17T04:23:34.133Z,48.80
2019-01-17T04:26:14.751Z,48.90
2019-01-17T04:28:43.475Z,48.80
2019-01-17T04:31:12.382Z,48.30
2019-01-17T04:33:41.119Z,47.10
2019-01-17T04:36:18.806Z,46.50
2019-01-17T04:38:47.571Z,45.70
2019-01-17T04:41:16.278Z,45.30
2019-01-17T04:43:45.009Z,44.60
2019-01-17T04:46:22.659Z,45.40
2019-01-17T04:48:51.430Z,44.90
2019-01-17T04:51:20.144Z,44.50
2019-01-17T04:53:48.836Z,43.90
2019-01-17T04:56:26.789Z,43.50
2019-01-17T04:58:55.539Z,44.10
2019-01-17T05:01:24.294Z,44.00
2019-01-17T05:03:53.660Z,44.70
2019-01-17T05:06:22.658Z,44.90
2019-01-17T05:08:52.003Z,45.00
2019-01-17T05:11:20.826Z,45.20
2019-01-17T05:13:49.537Z,45.30
2019-01-17T05:16:28.294Z,45.80
2019-01-17T05:18:57.076Z,45.80
2019-01-17T05:21:25.977Z,45.60
2019-01-17T05:23:54.858Z,45.50
2019-01-17T05:26:33.293Z,45.40
2019-01-17T05:29:02.302Z,45.60
2019-01-17T05:31:31.243Z,45.50
2019-01-17T05:34:00.129Z,45.00
2019-01-17T05:36:37.839Z,44.80
2019-01-17T05:39:07.684Z,44.40
2019-01-17T05:41:36.721Z,44.30
2019-01-17T05:44:05.613Z,44.10
2019-01-17T05:49:18.630Z,43.20
2019-01-17T05:51:47.427Z,43.10
2019-01-17T05:54:16.247Z,43.10
2019-01-17T05:56:54.027Z,42.90
2019-01-17T05:59:22.960Z,43.10
2019-01-17T06:01:51.949Z,43.60
2019-01-17T06:04:20.953Z,43.70
2019-01-17T06:06:58.724Z,43.90
2019-01-17T06:09:27.469Z,44.50
2019-01-17T06:11:56.225Z,45.10
2019-01-17T06:14:25.042Z,45.40
2019-01-17T06:17:03.082Z,45.70
2019-01-17T06:19:31.974Z,45.50
2019-01-17T06:22:00.757Z,45.60
2019-01-17T06:24:29.755Z,45.50
2019-01-17T06:27:07.570Z,45.10
2019-01-17T06:29:36.589Z,45.30
2019-01-17T06:32:05.653Z,45.00
2019-01-17T06:34:49.466Z,44.90
2019-01-17T06:37:18.239Z,44.90
2019-01-17T06:39:46.984Z,45.20
2019-01-17T06:42:15.728Z,45.10
2019-01-17T06:44:53.596Z,45.30
2019-01-17T06:47:22.445Z,45.50
2019-01-17T06:49:51.321Z,45.90
2019-01-17T06:52:20.318Z,46.20
2019-01-17T06:54:58.461Z,46.50
2019-01-17T06:57:27.284Z,46.80
2019-01-17T06:59:56.030Z,46.90
2019-01-17T07:02:24.819Z,47.10
2019-01-17T07:05:02.944Z,47.40
2019-01-17T07:07:32.089Z,47.30
2019-01-17T07:10:00.996Z,47.40
2019-01-17T07:12:29.980Z,47.20
2019-01-17T07:15:08.116Z,47.00
2019-01-17T07:17:37.037Z,46.80
2019-01-17T07:20:06.504Z,46.60
2019-01-17T07:22:35.369Z,47.30
2019-01-17T07:25:14.394Z,47.50
2019-01-17T07:27:43.543Z,47.80
2019-01-17T07:30:15.308Z,47.40
2019-01-17T07:32:44.536Z,47.60
2019-01-17T07:38:35.305Z,47.50
2019-01-17T07:41:04.582Z,47.90
2019-01-17T07:43:33.450Z,47.80
2019-01-17T07:46:11.358Z,47.90
2019-01-17T07:48:40.064Z,47.90
2019-01-17T07:51:08.808Z,48.30
2019-01-17T07:53:37.578Z,48.60
2019-01-17T07:56:15.740Z,48.90
2019-01-17T07:58:44.424Z,48.60
2019-01-17T08:01:15.012Z,48.50
2019-01-17T08:03:44.325Z,48.50
2019-01-17T08:06:22.232Z,48.10
2019-01-17T08:08:53.120Z,47.70
2019-01-17T08:11:22.374Z,47.60
2019-01-17T08:13:54.142Z,47.40
2019-01-17T08:16:23.164Z,47.30
2019-01-17T08:18:55.142Z,47.40
2019-01-17T08:21:23.875Z,47.80
2019-01-17T08:23:53.127Z,48.20
2019-01-17T08:26:31.085Z,48.00
2019-01-17T08:29:00.142Z,47.50
2019-01-17T08:31:31.071Z,47.10
2019-01-17T08:34:01.430Z,46.90
2019-01-17T08:36:39.389Z,47.30
2019-01-17T08:39:09.291Z,47.90
2019-01-17T08:41:38.817Z,48.90
2019-01-17T08:44:08.031Z,49.60
2019-01-17T08:46:46.228Z,49.60
2019-01-17T08:49:15.169Z,49.20
2019-01-17T08:51:44.098Z,49.10
2019-01-17T08:54:13.123Z,49.60
2019-01-17T08:56:51.305Z,49.30
2019-01-17T08:59:20.173Z,49.00
2019-01-17T09:01:48.894Z,49.10
2019-01-17T09:04:17.644Z,49.40
2019-01-17T09:07:07.901Z,50.00
2019-01-17T09:09:36.988Z,50.20
2019-01-17T09:12:08.589Z,50.30
2019-01-17T09:14:39.848Z,50.00
2019-01-17T09:17:17.654Z,49.90
2019-01-17T09:19:46.482Z,49.10
2019-01-17T09:22:15.457Z,49.00
2019-01-17T09:25:01.320Z,48.20
2019-01-17T09:27:30.103Z,48.40
2019-01-17T09:29:59.010Z,48.60
2019-01-17T09:32:29.546Z,48.90
2019-01-17T09:35:08.787Z,48.90
2019-01-17T09:37:40.652Z,49.00
2019-01-17T09:40:12.177Z,49.50
2019-01-17T09:42:41.029Z,49.50
2019-01-17T09:45:18.501Z,49.50
2019-01-17T09:47:47.662Z,49.60
2019-01-17T09:50:18.367Z,49.40
2019-01-17T09:52:47.288Z,49.20
2019-01-17T09:55:37.491Z,49.50
2019-01-17T09:58:07.098Z,49.50
2019-01-17T10:00:36.014Z,49.00
2019-01-17T10:03:04.969Z,48.60
2019-01-17T10:05:43.048Z,48.50
2019-01-17T10:08:14.014Z,48.00
2019-01-17T10:10:42.864Z,46.80
2019-01-17T10:13:11.631Z,46.20
2019-01-17T10:15:53.818Z,46.00
2019-01-17T10:19:06.081Z,45.70
2019-01-17T10:22:10.825Z,45.70
2019-01-17T10:25:18.020Z,46.30
2019-01-17T10:28:46.079Z,46.40
2019-01-17T10:31:48.169Z,47.70
2019-01-17T10:34:39.261Z,48.00
2019-01-17T10:41:10.670Z,48.70
2019-01-17T10:43:48.461Z,48.70
2019-01-17T10:46:51.912Z,49.40
2019-01-17T10:49:33.221Z,49.80
2019-01-17T10:52:51.235Z,49.60
2019-01-17T10:55:57.583Z,49.10
2019-01-17T10:58:35.557Z,49.30
2019-01-17T11:01:42.942Z,50.30
2019-01-17T11:04:25.100Z,50.40
2019-01-17T11:07:30.740Z,50.80
2019-01-17T11:10:22.951Z,51.00
2019-01-17T11:13:07.712Z,51.00
2019-01-17T11:16:02.302Z,51.40
2019-01-17T11:19:00.416Z,52.50
2019-01-17T11:22:07.809Z,53.20
2019-01-17T11:25:25.977Z,53.40
2019-01-17T11:28:21.285Z,54.40
2019-01-17T11:31:17.454Z,54.50
2019-01-17T11:34:30.449Z,55.00
2019-01-17T11:38:01.727Z,55.50
2019-01-17T11:40:56.505Z,55.60
2019-01-17T11:44:21.849Z,55.80
2019-01-17T11:47:45.262Z,56.10
2019-01-17T11:50:24.345Z,56.30
2019-01-17T11:53:19.638Z,56.70
2019-01-17T11:56:28.496Z,57.10
2019-01-17T11:59:33.024Z,57.40
2019-01-17T12:02:24.621Z,58.00
2019-01-17T12:04:52.173Z,57.90
2019-01-17T12:07:29.897Z,57.70
2019-01-17T12:09:58.800Z,57.90
2019-01-17T12:12:29.891Z,58.10
2019-01-17T12:14:59.544Z,58.60
2019-01-17T12:17:28.904Z,58.10
2019-01-17T12:19:58.570Z,58.80
2019-01-17T12:22:27.430Z,58.60
2019-01-17T12:24:56.150Z,58.80
2019-01-17T12:27:34.314Z,59.40
2019-01-17T12:30:03.086Z,58.30
2019-01-17T12:32:31.882Z,57.70
2019-01-17T12:35:00.790Z,58.20
2019-01-17T12:37:38.687Z,57.70
2019-01-17T12:40:09.022Z,57.60
2019-01-17T12:42:37.921Z,57.30
2019-01-17T12:45:07.213Z,56.20
2019-01-17T12:47:46.139Z,56.60
2019-01-17T12:50:18.936Z,56.00
2019-01-17T12:52:47.632Z,55.10
2019-01-17T12:55:16.495Z,55.20
2019-01-17T12:57:57.455Z,54.90
2019-01-17T13:00:26.251Z,55.60
2019-01-17T13:02:55.017Z,55.20
2019-01-17T13:05:38.688Z,55.20
2019-01-17T13:10:41.889Z,54.30
2019-01-17T13:13:10.979Z,54.70
2019-01-17T13:15:48.840Z,54.60
2019-01-17T13:18:17.645Z,53.80
2019-01-17T13:20:46.399Z,53.70
2019-01-17T13:23:15.384Z,53.70
2019-01-17T13:25:53.929Z,53.90
2019-01-17T13:28:22.795Z,53.50
2019-01-17T13:30:51.979Z,52.70
2019-01-17T13:33:23.886Z,53.30
2019-01-17T13:36:01.887Z,53.30
2019-01-17T13:38:30.680Z,53.40
2019-01-17T13:40:59.596Z,53.30
2019-01-17T13:43:28.465Z,52.30
2019-01-17T13:46:06.539Z,51.80
2019-01-17T13:48:35.445Z,50.90
2019-01-17T13:51:04.357Z,51.10
2019-01-17T13:53:33.243Z,50.40
2019-01-17T13:56:11.146Z,50.40
2019-01-17T13:58:39.929Z,50.50
2019-01-17T14:01:08.657Z,50.30
2019-01-17T14:03:37.437Z,50.70
2019-01-17T14:06:15.308Z,50.80
2019-01-17T14:08:44.309Z,50.40
2019-01-17T14:11:13.088Z,49.50
2019-01-17T14:13:42.010Z,50.00
2019-01-17T14:16:19.851Z,49.70
2019-01-17T14:18:48.551Z,49.30
2019-01-17T14:21:17.246Z,49.20
2019-01-17T14:23:46.335Z,49.60
2019-01-17T14:26:24.064Z,49.30
2019-01-17T14:28:53.122Z,49.30
2019-01-17T14:31:22.118Z,49.20
2019-01-17T14:33:51.049Z,49.00
2019-01-17T14:36:28.966Z,49.40
2019-01-17T14:38:57.916Z,49.70
2019-01-17T14:41:26.655Z,49.80
2019-01-17T14:43:55.485Z,49.70
2019-01-17T14:49:08.634Z,50.00
2019-01-17T14:51:38.154Z,49.80
2019-01-17T14:54:06.933Z,50.00
2019-01-17T14:59:19.231Z,50.20
2019-01-17T15:01:47.965Z,50.30
2019-01-17T15:04:17.137Z,50.00
2019-01-17T15:06:54.962Z,50.00
2019-01-17T15:09:23.697Z,49.50
2019-01-17T15:11:52.390Z,49.50
2019-01-17T15:14:21.233Z,49.60
2019-01-17T15:17:02.115Z,50.40
2019-01-17T15:19:30.925Z,50.60
2019-01-17T15:22:02.091Z,50.80
2019-01-17T15:24:30.826Z,50.40
2019-01-17T15:27:08.821Z,50.60
2019-01-17T15:29:39.988Z,51.00
2019-01-17T15:32:08.837Z,52.80
2019-01-17T15:34:37.694Z,54.50
2019-01-17T15:37:15.724Z,55.60
2019-01-17T15:39:46.307Z,56.60
2019-01-17T15:42:36.655Z,57.90
2019-01-17T15:45:05.908Z,58.70
2019-01-17T15:47:34.738Z,59.30
2019-01-17T15:50:03.733Z,60.10
2019-01-17T15:55:16.557Z,60.30
2019-01-17T15:57:45.525Z,60.00
2019-01-17T16:00:31.770Z,59.40
2019-01-17T16:03:09.961Z,59.70
2019-01-17T16:05:39.052Z,60.10
2019-01-17T16:08:08.003Z,60.30
2019-01-17T16:10:36.810Z,60.50
2019-01-17T16:13:14.889Z,60.00
2019-01-17T16:15:43.851Z,59.60
2019-01-17T16:18:12.839Z,59.60
2019-01-17T16:20:41.534Z,59.70
2019-01-17T16:23:19.524Z,59.40
2019-01-17T16:25:48.976Z,58.70
2019-01-17T16:28:17.955Z,58.60
2019-01-17T16:30:46.897Z,59.10
2019-01-17T16:36:01.503Z,58.50
2019-01-17T16:38:30.690Z,58.70
2019-01-17T16:40:59.672Z,58.00
2019-01-17T16:43:28.709Z,57.90
2019-01-17T16:45:57.613Z,57.20
2019-01-17T16:48:26.568Z,57.40
2019-01-17T16:50:55.341Z,57.50
2019-01-17T16:53:33.310Z,57.80
2019-01-17T16:56:01.973Z,58.00
2019-01-17T16:58:30.849Z,57.90
2019-01-17T17:01:00.015Z,58.60
2019-01-17T17:03:38.137Z,59.00
2019-01-17T17:06:10.087Z,59.50
2019-01-17T17:08:38.899Z,59.90
2019-01-17T17:11:07.948Z,60.10
2019-01-17T17:13:45.705Z,60.00
2019-01-17T17:16:14.491Z,59.60
2019-01-17T17:18:43.325Z,59.60
2019-01-17T17:21:12.445Z,59.50
2019-01-17T17:23:50.534Z,59.10
2019-01-17T17:26:19.330Z,59.30
2019-01-17T17:28:48.062Z,58.80
2019-01-17T17:31:16.894Z,58.00
2019-01-17T17:34:06.896Z,58.30
2019-01-17T17:36:35.988Z,57.70
2019-01-17T17:39:07.729Z,58.10
2019-01-17T17:41:36.598Z,58.20
2019-01-17T17:44:16.642Z,57.80
2019-01-17T17:46:45.456Z,57.40
2019-01-17T17:49:14.330Z,57.30
2019-01-17T17:51:46.381Z,57.10
2019-01-17T17:54:24.598Z,57.20
2019-01-17T17:56:53.618Z,56.70
2019-01-17T17:59:22.964Z,56.10
2019-01-17T18:01:58.789Z,56.10
2019-01-17T18:04:36.620Z,56.10
2019-01-17T18:07:05.453Z,56.10
2019-01-17T18:09:34.164Z,55.60
2019-01-17T18:12:03.159Z,56.10
2019-01-17T18:14:41.068Z,56.70
2019-01-17T18:17:09.782Z,58.60
2019-01-17T18:19:47.708Z,60.40
2019-01-17T18:22:16.633Z,60.90
2019-01-17T18:24:45.457Z,61.90
2019-01-17T18:27:14.454Z,62.00
2019-01-17T18:29:43.295Z,62.60
2019-01-17T18:32:21.281Z,63.50
2019-01-17T18:34:50.156Z,63.90
2019-01-17T18:37:19.241Z,64.40
2019-01-17T18:39:48.148Z,64.60
2019-01-17T18:42:26.158Z,63.80
2019-01-17T18:44:54.827Z,63.80
2019-01-17T18:47:23.887Z,63.40
2019-01-17T18:49:52.664Z,63.40
2019-01-17T18:52:30.545Z,63.60
2019-01-17T18:54:59.419Z,63.40
2019-01-17T18:57:28.242Z,63.10
2019-01-17T18:59:57.559Z,62.90
2019-01-17T19:02:36.109Z,62.50
2019-01-17T19:05:05.464Z,62.30
2019-01-17T19:07:36.384Z,61.80
2019-01-17T19:10:05.320Z,61.50
2019-01-17T19:12:43.237Z,61.10
2019-01-17T19:15:14.796Z,61.70
2019-01-17T19:17:43.721Z,62.70
2019-01-17T19:20:14.128Z,62.60
2019-01-17T19:25:30.461Z,62.60
2019-01-17T19:27:59.591Z,62.30
2019-01-17T19:30:30.090Z,62.40
2019-01-17T19:33:08.924Z,62.10
2019-01-17T19:35:38.137Z,62.20
2019-01-17T19:38:07.149Z,61.30
2019-01-17T19:40:36.146Z,60.90
2019-01-17T19:43:14.043Z,61.00
2019-01-17T19:45:42.796Z,60.80
2019-01-17T19:48:11.580Z,61.00
2019-01-17T19:50:40.379Z,61.60
2019-01-17T19:53:18.525Z,61.60
2019-01-17T19:55:47.241Z,61.40
2019-01-17T19:58:16.016Z,61.30
2019-01-17T20:00:46.938Z,61.90
2019-01-17T20:03:24.820Z,61.50
2019-01-17T20:05:53.606Z,61.70
2019-01-17T20:08:22.440Z,60.80
2019-01-17T20:10:51.752Z,60.00
2019-01-17T20:13:31.701Z,59.50
2019-01-17T20:16:00.626Z,58.90
2019-01-17T20:18:29.644Z,59.00
2019-01-17T20:20:58.851Z,59.40
2019-01-17T20:23:36.737Z,59.80
2019-01-17T20:26:05.609Z,60.00
2019-01-17T20:28:35.818Z,60.50
2019-01-17T20:31:04.769Z,60.80
2019-01-17T20:33:42.852Z,61.20
2019-01-17T20:36:11.560Z,61.20
2019-01-17T20:38:40.261Z,61.10
2019-01-17T20:41:09.044Z,60.90
2019-01-17T20:43:47.117Z,60.60
2019-01-17T20:46:16.491Z,61.10
2019-01-17T20:48:54.467Z,61.70
2019-01-17T20:51:24.679Z,61.10
2019-01-17T20:53:53.593Z,60.30
2019-01-17T20:56:22.410Z,60.50
2019-01-17T20:59:00.638Z,60.90
2019-01-17T21:01:56.984Z,60.50
2019-01-17T21:04:36.350Z,60.80
2019-01-17T21:07:05.823Z,62.20
2019-01-17T21:09:34.650Z,61.80
2019-01-17T21:12:03.452Z,60.40
2019-01-17T21:17:16.487Z,60.50
2019-01-17T21:19:47.267Z,60.30
2019-01-17T21:22:16.098Z,60.70
2019-01-17T21:24:54.055Z,60.40
2019-01-17T21:27:22.948Z,60.70
2019-01-17T21:29:55.098Z,60.90
2019-01-17T21:32:24.605Z,59.90
2019-01-17T21:35:02.611Z,59.80
2019-01-17T21:37:31.500Z,59.80
2019-01-17T21:40:00.287Z,60.30
2019-01-17T21:42:32.110Z,59.50
2019-01-17T21:45:22.387Z,59.30
2019-01-17T21:47:51.410Z,59.20
2019-01-17T21:50:23.015Z,59.30
2019-01-17T21:52:52.026Z,59.70
2019-01-17T21:55:32.394Z,59.70
2019-01-17T21:58:01.411Z,59.50
2019-01-17T22:00:30.284Z,60.50
2019-01-17T22:02:59.576Z,60.40
2019-01-17T22:05:37.841Z,60.60
2019-01-17T22:08:07.881Z,60.00
2019-01-17T22:10:39.830Z,59.90
2019-01-17T22:13:08.511Z,60.10
2019-01-17T22:15:46.360Z,59.80
2019-01-17T22:18:16.030Z,59.90
2019-01-17T22:20:44.957Z,59.60
2019-01-17T22:23:16.192Z,58.90
2019-01-17T22:25:54.053Z,58.70
2019-01-17T22:28:24.920Z,58.60
2019-01-17T22:30:53.894Z,59.50
2019-01-17T22:33:36.184Z,58.80
2019-01-17T22:36:17.408Z,59.10
2019-01-17T22:38:46.305Z,58.70
2019-01-17T22:41:15.184Z,58.60
2019-01-17T22:43:53.587Z,58.20
2019-01-17T22:46:25.341Z,58.40
2019-01-17T22:48:54.094Z,59.60
2019-01-17T22:51:24.939Z,58.50
2019-01-17T22:54:02.949Z,57.90
2019-01-17T22:56:31.630Z,57.60
2019-01-17T22:59:00.372Z,57.70
2019-01-17T23:01:29.974Z,58.60
2019-01-17T23:04:07.964Z,57.90
2019-01-17T23:06:36.748Z,57.80
2019-01-17T23:09:08.421Z,57.40
2019-01-17T23:11:39.535Z,57.60
2019-01-17T23:14:17.563Z,57.30
2019-01-17T23:16:46.356Z,57.50
2019-01-17T23:19:27.885Z,57.20
2019-01-17T23:21:57.433Z,57.40
2019-01-17T23:24:35.338Z,57.00
2019-01-17T23:27:04.058Z,57.70
2019-01-17T23:29:32.750Z,58.50
2019-01-17T23:32:01.560Z,58.60
2019-01-17T23:34:39.484Z,57.50
2019-01-17T23:37:08.215Z,57.90
2019-01-17T23:39:36.893Z,58.00
2019-01-17T23:42:05.590Z,57.50
2019-01-17T23:44:43.547Z,57.40
2019-01-17T23:47:12.299Z,57.20
2019-01-17T23:49:41.086Z,57.40
2019-01-17T23:52:10.952Z,57.90
2019-01-17T23:54:51.267Z,57.50
2019-01-17T23:57:20.089Z,57.50
2019-01-17T23:59:48.880Z,57.30
